Time;durP1;ratioP1;P1;durP2;ratioP2;P2;SDS_P1;SDS_P2;PMS_P1;PMS_P2;Temp;Humidity;BMP_temperature;BMP_pressure;BME280_temperature;BME280_humidity;BME280_pressure;Samples;Min_cycle;Max_cycle;Signal;HPM_P1;HPM_P2
2020/12/26 00:00:48;;;;;;;3.47;1.20;;;2.30;99.90;;;;;;5005246;28;20038;-74
2020/12/26 00:03:14;;;;;;;3.40;1.30;;;2.20;99.90;;;;;;5005689;28;20516;-75
2020/12/26 00:05:40;;;;;;;4.30;1.30;;;2.20;99.90;;;;;;5010328;28;20037;-74
2020/12/26 00:08:05;;;;;;;4.20;1.15;;;2.10;99.90;;;;;;5009720;28;20492;-75
2020/12/26 00:10:32;;;;;;;3.63;0.98;;;2.10;99.90;;;;;;5009465;28;20026;-75
2020/12/26 00:12:57;;;;;;;2.60;1.15;;;2.10;99.90;;;;;;5003491;28;20025;-75
2020/12/26 00:15:23;;;;;;;3.00;1.35;;;2.10;99.90;;;;;;5009510;28;20561;-74
2020/12/26 00:17:49;;;;;;;4.28;1.13;;;2.10;99.90;;;;;;5009172;28;20033;-74
2020/12/26 00:20:17;;;;;;;2.78;1.20;;;2.00;99.90;;;;;;5010647;28;20036;-74
2020/12/26 00:22:43;;;;;;;4.80;1.60;;;2.00;99.90;;;;;;5009821;28;20736;-74
2020/12/26 00:25:08;;;;;;;5.13;1.67;;;2.00;99.90;;;;;;5010738;28;20044;-74
2020/12/26 00:27:34;;;;;;;2.38;1.02;;;1.90;99.90;;;;;;5010441;28;20113;-75
2020/12/26 00:29:59;;;;;;;3.33;1.10;;;1.90;99.90;;;;;;5010531;28;20186;-74
2020/12/26 00:32:25;;;;;;;3.25;1.35;;;1.90;99.90;;;;;;5002279;28;20587;-75
2020/12/26 00:34:51;;;;;;;4.32;1.85;;;1.90;99.90;;;;;;5008928;28;20358;-75
2020/12/26 00:37:17;;;;;;;3.75;1.33;;;1.90;99.90;;;;;;5010876;28;20028;-75
2020/12/26 00:39:43;;;;;;;4.47;1.25;;;1.90;99.90;;;;;;5001383;28;20033;-74
2020/12/26 00:42:09;;;;;;;3.55;1.25;;;1.90;99.90;;;;;;5010633;28;20079;-74
2020/12/26 00:44:35;;;;;;;3.33;1.17;;;1.80;99.90;;;;;;5008772;28;20049;-75
2020/12/26 00:47:00;;;;;;;2.80;1.00;;;1.80;99.90;;;;;;5008858;28;20436;-75
2020/12/26 00:49:26;;;;;;;3.85;1.40;;;1.80;99.90;;;;;;5007886;28;20053;-74
2020/12/26 00:51:51;;;;;;;2.55;1.00;;;1.80;99.90;;;;;;5008890;28;20045;-74
2020/12/26 00:54:17;;;;;;;4.38;1.48;;;1.70;99.90;;;;;;5007777;28;20034;-75
2020/12/26 00:56:43;;;;;;;3.47;1.13;;;1.70;99.90;;;;;;5008813;28;20030;-74
2020/12/26 00:59:08;;;;;;;5.07;1.40;;;1.70;99.90;;;;;;5009486;28;20088;-75
2020/12/26 01:01:34;;;;;;;3.97;1.60;;;1.70;99.90;;;;;;5012407;28;20465;-74
2020/12/26 01:03:59;;;;;;;3.05;1.13;;;1.60;99.90;;;;;;5011986;28;20154;-75
2020/12/26 01:06:25;;;;;;;3.83;1.60;;;1.60;99.90;;;;;;5012894;28;20045;-74
2020/12/26 01:08:51;;;;;;;3.72;1.40;;;1.50;99.90;;;;;;5019163;28;20595;-75
2020/12/26 01:11:16;;;;;;;4.85;1.75;;;1.60;99.90;;;;;;5012848;28;20136;-74
2020/12/26 01:13:42;;;;;;;3.88;1.77;;;1.50;99.90;;;;;;5017489;28;20076;-74
2020/12/26 01:16:11;;;;;;;4.80;2.08;;;1.50;99.90;;;;;;5012760;28;20064;-74
2020/12/26 01:18:36;;;;;;;3.75;1.73;;;1.60;99.90;;;;;;5012011;28;20025;-75
2020/12/26 01:21:04;;;;;;;3.90;1.60;;;1.60;99.90;;;;;;5008689;28;20088;-74
2020/12/26 01:23:32;;;;;;;3.58;1.70;;;1.60;99.90;;;;;;5011814;28;20033;-75
2020/12/26 01:25:58;;;;;;;3.75;1.55;;;1.60;99.90;;;;;;5010228;28;20095;-75
2020/12/26 01:28:23;;;;;;;4.05;1.92;;;1.50;99.90;;;;;;5013351;28;20368;-74
2020/12/26 01:30:49;;;;;;;4.15;1.90;;;1.60;99.90;;;;;;5011848;28;20042;-74
2020/12/26 01:33:15;;;;;;;5.88;1.42;;;1.50;99.90;;;;;;5012303;28;20144;-74
2020/12/26 01:35:40;;;;;;;2.95;1.20;;;1.40;99.90;;;;;;5011101;28;20049;-74
2020/12/26 01:38:06;;;;;;;5.20;2.10;;;1.30;99.90;;;;;;5011804;28;20389;-75
2020/12/26 01:40:32;;;;;;;5.22;2.50;;;1.30;99.90;;;;;;5010673;28;20065;-74
2020/12/26 01:42:57;;;;;;;5.80;2.53;;;1.40;99.90;;;;;;5011476;28;20050;-74
2020/12/26 01:45:24;;;;;;;6.13;2.60;;;1.40;99.90;;;;;;5010933;28;20044;-74
2020/12/26 01:47:50;;;;;;;8.32;3.13;;;1.40;99.90;;;;;;5011923;28;20050;-75
2020/12/26 01:50:16;;;;;;;6.47;2.55;;;1.40;99.90;;;;;;5015529;28;20776;-74
2020/12/26 01:52:43;;;;;;;6.07;2.53;;;1.30;99.90;;;;;;5011818;28;20133;-74
2020/12/26 01:55:11;;;;;;;5.55;2.42;;;1.30;99.90;;;;;;5011364;28;20188;-74
2020/12/26 01:57:48;;;;;;;5.63;2.35;;;1.30;99.90;;;;;;5010697;28;20519;-75
2020/12/26 02:00:13;;;;;;;6.63;2.70;;;1.30;99.90;;;;;;5012766;28;20418;-74
2020/12/26 02:02:41;;;;;;;5.32;2.42;;;1.40;99.90;;;;;;5011522;28;20061;-75
2020/12/26 02:05:06;;;;;;;4.05;1.67;;;1.40;99.90;;;;;;5011483;28;20042;-75
2020/12/26 02:07:32;;;;;;;4.55;2.17;;;1.40;99.90;;;;;;5008995;28;20065;-75
2020/12/26 02:09:58;;;;;;;4.80;2.10;;;1.50;99.90;;;;;;5010592;28;20038;-75
2020/12/26 02:12:23;;;;;;;4.93;1.80;;;1.50;99.90;;;;;;5009939;28;20026;-75
2020/12/26 02:14:49;;;;;;;5.88;2.10;;;1.40;99.90;;;;;;5011262;28;20056;-75
2020/12/26 02:17:14;;;;;;;4.45;1.80;;;1.50;99.90;;;;;;5010661;28;20101;-74
2020/12/26 02:19:40;;;;;;;4.80;2.13;;;1.50;99.90;;;;;;5011006;28;20046;-75
2020/12/26 02:22:06;;;;;;;5.25;2.40;;;1.50;99.90;;;;;;5007684;28;20052;-75
2020/12/26 02:24:32;;;;;;;3.55;1.55;;;1.50;99.90;;;;;;5011007;28;20050;-74
2020/12/26 02:26:58;;;;;;;5.90;1.90;;;1.40;99.90;;;;;;5009992;28;20627;-74
2020/12/26 02:29:24;;;;;;;4.75;1.75;;;1.40;99.90;;;;;;5010853;28;20040;-74
2020/12/26 02:31:49;;;;;;;3.83;1.65;;;1.40;99.90;;;;;;5009958;28;20035;-75
2020/12/26 02:34:15;;;;;;;4.32;2.10;;;1.40;99.90;;;;;;5010822;28;20030;-74
2020/12/26 02:36:41;;;;;;;5.05;2.30;;;1.40;99.90;;;;;;5007978;28;20026;-75
2020/12/26 02:39:09;;;;;;;5.00;2.25;;;1.40;99.90;;;;;;5006232;28;20610;-75
2020/12/26 02:41:35;;;;;;;6.70;2.30;;;1.50;99.90;;;;;;5012324;28;20030;-74
2020/12/26 02:44:01;;;;;;;4.38;2.22;;;1.50;99.90;;;;;;5010832;28;20048;-74
2020/12/26 02:46:26;;;;;;;4.43;1.85;;;1.50;99.90;;;;;;5009612;28;20034;-74
2020/12/26 02:48:52;;;;;;;4.93;1.95;;;1.50;99.90;;;;;;5010547;28;20411;-75
2020/12/26 02:51:18;;;;;;;4.38;2.00;;;1.50;99.90;;;;;;5015042;28;20401;-74
2020/12/26 02:53:43;;;;;;;5.80;2.00;;;1.50;99.90;;;;;;5010064;28;20038;-74
2020/12/26 02:56:12;;;;;;;4.28;2.40;;;1.40;99.90;;;;;;5012957;28;20514;-74
2020/12/26 02:58:40;;;;;;;3.10;1.63;;;1.40;99.90;;;;;;5010122;28;20033;-74
2020/12/26 03:01:06;;;;;;;4.18;1.83;;;1.40;99.90;;;;;;5010294;28;20145;-75
2020/12/26 03:03:33;;;;;;;4.15;1.85;;;1.40;99.90;;;;;;5007652;28;20073;-74
2020/12/26 03:05:58;;;;;;;3.33;1.42;;;1.30;99.90;;;;;;5009874;28;20038;-75
2020/12/26 03:08:24;;;;;;;5.05;1.95;;;1.30;99.90;;;;;;5007767;28;20038;-75
2020/12/26 03:10:50;;;;;;;6.75;2.22;;;1.40;99.90;;;;;;5006796;28;20135;-75
2020/12/26 03:13:15;;;;;;;3.45;1.60;;;1.30;99.90;;;;;;5002240;28;20037;-74
2020/12/26 03:15:41;;;;;;;4.93;2.00;;;1.30;99.90;;;;;;5010270;28;20064;-75
2020/12/26 03:18:07;;;;;;;4.10;2.10;;;1.20;99.90;;;;;;5009970;28;20026;-74
2020/12/26 03:20:32;;;;;;;4.43;2.25;;;1.40;99.90;;;;;;5010227;28;20026;-74
2020/12/26 03:22:58;;;;;;;4.22;2.35;;;1.40;99.90;;;;;;5009934;28;20393;-75
2020/12/26 03:25:24;;;;;;;4.05;2.30;;;1.40;99.90;;;;;;5009999;28;20748;-74
2020/12/26 03:27:49;;;;;;;5.22;2.47;;;1.40;99.90;;;;;;5013362;28;20061;-75
2020/12/26 03:30:15;;;;;;;4.80;2.42;;;1.40;99.90;;;;;;5009128;28;20042;-74
2020/12/26 03:32:41;;;;;;;3.88;2.10;;;1.30;99.90;;;;;;5009714;28;20041;-74
2020/12/26 03:35:06;;;;;;;4.38;2.22;;;1.30;99.90;;;;;;5009437;28;20460;-75
2020/12/26 03:37:37;;;;;;;5.32;2.30;;;1.20;99.90;;;;;;5010788;28;20037;-74
2020/12/26 03:40:05;;;;;;;4.85;2.20;;;1.10;99.90;;;;;;5004468;28;20372;-74
2020/12/26 03:42:30;;;;;;;4.70;2.40;;;1.00;99.90;;;;;;5010961;28;20046;-75
2020/12/26 03:44:56;;;;;;;5.90;2.67;;;1.00;99.90;;;;;;5015473;28;20050;-74
2020/12/26 03:47:22;;;;;;;6.20;2.50;;;1.10;99.90;;;;;;5009584;28;20114;-74
2020/12/26 03:49:47;;;;;;;5.18;2.28;;;1.10;99.90;;;;;;5008689;28;20054;-74
2020/12/26 03:52:13;;;;;;;4.97;2.20;;;1.00;99.90;;;;;;5009814;28;20484;-74
2020/12/26 03:54:39;;;;;;;4.70;2.53;;;1.10;99.90;;;;;;5008467;28;20125;-74
2020/12/26 03:57:04;;;;;;;5.28;2.45;;;1.10;99.90;;;;;;5009611;28;20026;-74
2020/12/26 03:59:30;;;;;;;4.22;2.25;;;1.10;99.90;;;;;;5011997;28;20056;-74
2020/12/26 04:01:56;;;;;;;4.15;2.00;;;1.10;99.90;;;;;;5009615;28;20037;-74
2020/12/26 04:04:21;;;;;;;4.43;2.17;;;1.10;99.90;;;;;;5010361;28;20396;-75
2020/12/26 04:06:47;;;;;;;5.95;2.90;;;0.90;99.90;;;;;;5009763;28;20407;-75
2020/12/26 04:09:13;;;;;;;5.50;2.70;;;1.00;99.90;;;;;;5002182;28;20385;-74
2020/12/26 04:11:40;;;;;;;5.47;2.90;;;0.90;99.90;;;;;;5009390;28;20057;-74
2020/12/26 04:14:06;;;;;;;5.68;2.72;;;0.80;99.90;;;;;;5008942;28;20029;-74
2020/12/26 04:16:32;;;;;;;4.72;2.30;;;0.80;99.90;;;;;;5009272;28;20723;-74
2020/12/26 04:18:58;;;;;;;5.40;2.60;;;0.80;99.90;;;;;;5009477;28;20014;-74
2020/12/26 04:21:25;;;;;;;6.97;2.67;;;0.80;99.90;;;;;;5009333;28;20041;-74
2020/12/26 04:23:54;;;;;;;6.93;3.00;;;0.90;99.90;;;;;;5008987;28;20038;-74
2020/12/26 04:26:20;;;;;;;7.20;3.05;;;0.90;99.90;;;;;;5006425;28;20069;-74
2020/12/26 04:28:47;;;;;;;5.10;2.33;;;0.80;99.90;;;;;;5008455;28;20137;-74
2020/12/26 04:31:12;;;;;;;7.55;2.53;;;0.90;99.90;;;;;;5009383;28;20817;-74
2020/12/26 04:33:38;;;;;;;5.90;2.80;;;0.80;99.90;;;;;;5007603;28;20033;-74
2020/12/26 04:36:04;;;;;;;6.85;3.28;;;0.70;99.90;;;;;;5001469;28;20042;-74
2020/12/26 04:38:32;;;;;;;5.93;3.10;;;0.60;99.90;;;;;;5000599;28;20138;-75
2020/12/26 04:40:58;;;;;;;5.55;2.78;;;0.60;99.90;;;;;;5004230;28;20095;-74
2020/12/26 04:43:25;;;;;;;7.57;3.33;;;0.60;99.90;;;;;;5008664;28;20029;-74
2020/12/26 04:45:54;;;;;;;6.32;3.17;;;0.60;99.90;;;;;;5016776;28;20041;-74
2020/12/26 04:48:25;;;;;;;6.80;3.20;;;0.50;99.90;;;;;;5008598;28;20042;-74
2020/12/26 04:50:56;;;;;;;8.77;3.60;;;0.50;99.90;;;;;;4998144;28;20049;-74
2020/12/26 04:53:32;;;;;;;6.82;3.65;;;0.50;99.90;;;;;;4992308;28;20341;-74
2020/12/26 04:56:01;;;;;;;8.02;3.53;;;0.50;99.90;;;;;;5001358;28;20030;-74
2020/12/26 04:58:29;;;;;;;8.98;3.00;;;0.40;99.90;;;;;;5000865;28;20017;-74
2020/12/26 05:00:55;;;;;;;7.65;3.50;;;0.40;99.90;;;;;;5012018;28;20076;-75
2020/12/26 05:03:27;;;;;;;7.57;2.95;;;0.40;99.90;;;;;;5008160;28;20026;-74
2020/12/26 05:06:03;;;;;;;7.43;3.72;;;0.40;99.90;;;;;;5009100;28;20041;-75
2020/12/26 05:08:29;;;;;;;7.05;3.70;;;0.20;99.90;;;;;;5008172;28;20100;-74
2020/12/26 05:10:56;;;;;;;8.52;3.67;;;0.30;99.90;;;;;;5008920;28;20082;-74
2020/12/26 05:13:21;;;;;;;9.82;3.78;;;0.20;99.90;;;;;;5007854;28;20112;-75
2020/12/26 05:15:47;;;;;;;8.70;4.10;;;0.20;99.90;;;;;;5004447;28;20144;-74
2020/12/26 05:18:12;;;;;;;7.53;4.15;;;0.30;99.90;;;;;;4997717;28;20034;-74
2020/12/26 05:20:38;;;;;;;8.63;3.90;;;0.20;99.90;;;;;;4998335;28;20362;-74
2020/12/26 05:23:14;;;;;;;9.55;4.20;;;0.20;99.90;;;;;;5008812;28;20037;-75
2020/12/26 05:25:43;;;;;;;6.78;3.83;;;0.20;99.90;;;;;;5007843;28;20916;-74
2020/12/26 05:28:14;;;;;;;6.70;3.35;;;0.20;99.90;;;;;;5008636;28;20057;-75
2020/12/26 05:30:45;;;;;;;7.23;4.23;;;0.30;99.90;;;;;;5003458;28;20041;-74
2020/12/26 05:33:12;;;;;;;7.25;3.80;;;0.20;99.90;;;;;;5013255;28;20042;-75
2020/12/26 05:35:43;;;;;;;6.00;3.35;;;0.10;99.90;;;;;;5007736;28;20033;-74
2020/12/26 05:38:23;;;;;;;6.05;3.67;;;0.00;99.90;;;;;;5008862;28;20108;-74
2020/12/26 05:40:56;;;;;;;7.53;4.07;;;0.10;99.90;;;;;;5000744;28;20747;-74
2020/12/26 05:43:27;;;;;;;9.32;4.43;;;0.10;99.90;;;;;;5008126;28;20380;-74
2020/12/26 05:45:53;;;;;;;7.20;3.70;;;0.10;99.90;;;;;;5010650;28;20030;-74
2020/12/26 05:48:21;;;;;;;7.93;3.85;;;0.00;99.90;;;;;;5011746;28;20142;-74
2020/12/26 05:50:50;;;;;;;8.15;4.25;;;-0.20;99.90;;;;;;5008347;28;20031;-75
2020/12/26 05:53:17;;;;;;;9.40;4.57;;;-0.10;99.90;;;;;;5007989;28;20190;-74
2020/12/26 05:55:45;;;;;;;7.63;4.35;;;-0.10;99.90;;;;;;5003260;28;20361;-74
2020/12/26 05:58:18;;;;;;;8.75;4.45;;;0.00;99.90;;;;;;5011347;28;20057;-74
2020/12/26 06:00:43;;;;;;;10.57;5.88;;;-0.10;99.90;;;;;;5011195;28;20515;-74
2020/12/26 06:03:33;;;;;;;9.88;5.55;;;0.00;99.90;;;;;;5011896;28;20034;-74
2020/12/26 06:06:01;;;;;;;11.45;6.57;;;0.00;99.90;;;;;;5004419;28;21096;-74
2020/12/26 06:08:28;;;;;;;13.05;7.10;;;-0.10;99.90;;;;;;5014573;28;20503;-75
2020/12/26 06:10:56;;;;;;;13.10;7.28;;;-0.10;99.90;;;;;;5006282;28;20101;-74
2020/12/26 06:13:23;;;;;;;14.68;8.02;;;0.00;99.90;;;;;;5005622;28;20377;-74
2020/12/26 06:15:54;;;;;;;16.63;8.32;;;-0.10;99.90;;;;;;5002832;28;20053;-75
2020/12/26 06:18:22;;;;;;;12.02;6.47;;;-0.10;99.90;;;;;;5007372;28;20034;-74
2020/12/26 06:20:52;;;;;;;13.80;6.40;;;-0.10;99.90;;;;;;5010356;28;20109;-74
2020/12/26 06:23:23;;;;;;;9.52;5.10;;;-0.20;99.90;;;;;;5008104;28;20102;-74
2020/12/26 06:25:50;;;;;;;10.63;5.97;;;-0.20;99.90;;;;;;5003669;28;20406;-74
2020/12/26 06:28:22;;;;;;;10.07;5.75;;;-0.20;99.90;;;;;;5006722;28;20485;-75
2020/12/26 06:30:48;;;;;;;8.93;5.68;;;-0.10;99.90;;;;;;4997502;28;20157;-74
2020/12/26 06:33:15;;;;;;;10.88;5.70;;;-0.20;99.90;;;;;;5006082;28;20038;-74
2020/12/26 06:35:44;;;;;;;11.27;5.70;;;-0.20;99.90;;;;;;5008789;28;20041;-74
2020/12/26 06:38:19;;;;;;;9.68;4.82;;;-0.20;99.90;;;;;;5010493;28;20026;-74
2020/12/26 06:40:55;;;;;;;13.05;6.30;;;-0.20;99.90;;;;;;5002445;28;20117;-74
2020/12/26 06:43:42;;;;;;;14.00;6.57;;;-0.30;99.90;;;;;;5010074;28;20029;-74
2020/12/26 06:46:08;;;;;;;12.02;5.65;;;-0.40;99.90;;;;;;5000746;28;20058;-73
2020/12/26 06:48:34;;;;;;;9.20;5.50;;;-0.30;99.90;;;;;;5009053;28;20054;-74
2020/12/26 06:51:25;;;;;;;13.73;6.20;;;-0.30;99.90;;;;;;5005465;28;20080;-74
2020/12/26 06:53:52;;;;;;;10.73;5.65;;;-0.30;99.90;;;;;;5004041;28;20041;-74
2020/12/26 06:56:36;;;;;;;10.52;5.53;;;-0.20;99.90;;;;;;5009002;28;20026;-74
2020/12/26 06:59:05;;;;;;;8.82;4.78;;;-0.20;99.90;;;;;;5004961;28;20045;-74
2020/12/26 07:01:32;;;;;;;11.18;5.35;;;-0.20;99.90;;;;;;5007415;28;20045;-74
2020/12/26 07:04:19;;;;;;;12.15;6.80;;;-0.20;99.90;;;;;;5010542;28;20063;-74
2020/12/26 07:06:54;;;;;;;13.35;5.85;;;-0.30;99.90;;;;;;5007765;28;20038;-74
2020/12/26 07:09:45;;;;;;;13.02;5.82;;;-0.40;99.90;;;;;;5001163;28;20160;-74
2020/12/26 07:12:13;;;;;;;12.23;6.10;;;-0.40;99.90;;;;;;5002666;28;20084;-74
2020/12/26 07:14:45;;;;;;;10.02;6.05;;;-0.40;99.90;;;;;;5009116;28;20034;-75
2020/12/26 07:17:14;;;;;;;11.40;5.40;;;-0.30;99.90;;;;;;5009254;28;20459;-74
2020/12/26 07:19:46;;;;;;;10.23;5.88;;;-0.30;99.90;;;;;;5008470;28;20033;-74
2020/12/26 07:22:22;;;;;;;9.35;5.65;;;-0.30;99.90;;;;;;5009521;28;20749;-74
2020/12/26 07:24:53;;;;;;;11.23;5.63;;;-0.30;99.90;;;;;;4999301;28;20108;-74
2020/12/26 07:27:29;;;;;;;8.68;5.18;;;-0.30;99.90;;;;;;5001656;28;20044;-74
2020/12/26 07:30:01;;;;;;;9.75;5.18;;;-0.30;99.90;;;;;;5009910;28;20030;-74
2020/12/26 07:32:36;;;;;;;11.10;5.18;;;-0.30;99.90;;;;;;4995515;28;20038;-74
2020/12/26 07:35:05;;;;;;;9.45;5.00;;;-0.30;99.90;;;;;;4997428;28;20032;-74
2020/12/26 07:37:31;;;;;;;10.25;5.78;;;-0.30;99.90;;;;;;5009616;28;20822;-74
2020/12/26 07:39:57;;;;;;;8.60;5.47;;;-0.30;99.90;;;;;;5009042;28;20457;-74
2020/12/26 07:42:22;;;;;;;9.70;5.18;;;-0.30;99.90;;;;;;5009111;28;20125;-74
2020/12/26 07:44:49;;;;;;;7.30;4.60;;;-0.30;99.90;;;;;;5008536;28;20029;-75
2020/12/26 07:47:15;;;;;;;8.40;5.40;;;-0.30;99.90;;;;;;5003983;28;20062;-74
2020/12/26 07:49:41;;;;;;;8.52;5.28;;;-0.30;99.90;;;;;;5001470;28;20136;-75
2020/12/26 07:52:08;;;;;;;10.30;5.35;;;-0.30;99.90;;;;;;5005066;28;20442;-74
2020/12/26 07:54:34;;;;;;;8.80;5.15;;;-0.30;99.90;;;;;;5007237;28;20033;-74
2020/12/26 07:57:00;;;;;;;11.15;6.07;;;-0.30;99.90;;;;;;5009036;28;20389;-74
2020/12/26 07:59:27;;;;;;;10.43;6.18;;;-0.30;99.90;;;;;;5008183;28;20076;-74
2020/12/26 08:01:56;;;;;;;12.20;6.05;;;-0.30;99.90;;;;;;5002000;28;20065;-74
2020/12/26 08:04:23;;;;;;;11.40;6.78;;;-0.40;99.90;;;;;;5004301;28;20117;-74
2020/12/26 08:06:50;;;;;;;12.02;7.18;;;-0.50;99.90;;;;;;5008262;28;20091;-74
2020/12/26 08:09:17;;;;;;;13.55;8.13;;;-0.30;99.90;;;;;;4999726;28;20592;-74
2020/12/26 08:11:43;;;;;;;17.75;8.52;;;-0.20;99.90;;;;;;5001760;28;20037;-74
2020/12/26 08:14:10;;;;;;;16.13;8.90;;;-0.20;99.90;;;;;;5002925;28;20034;-74
2020/12/26 08:16:36;;;;;;;18.10;10.38;;;-0.30;99.90;;;;;;5009561;28;20033;-74
2020/12/26 08:19:04;;;;;;;16.35;10.80;;;-0.20;99.90;;;;;;5009876;28;20026;-74
2020/12/26 08:21:30;;;;;;;23.27;13.02;;;-0.10;99.90;;;;;;5001226;28;20431;-73
2020/12/26 08:24:02;;;;;;;29.92;15.50;;;0.00;99.90;;;;;;5009926;28;20030;-74
2020/12/26 08:26:29;;;;;;;23.98;14.23;;;0.10;99.90;;;;;;5007256;28;20022;-74
2020/12/26 08:29:04;;;;;;;24.08;12.13;;;0.10;99.90;;;;;;5004322;28;20042;-74
2020/12/26 08:31:32;;;;;;;21.45;10.50;;;0.20;99.90;;;;;;5008292;28;20373;-74
2020/12/26 08:34:04;;;;;;;16.17;8.45;;;0.30;99.90;;;;;;5005834;28;20392;-75
2020/12/26 08:36:38;;;;;;;15.73;7.90;;;0.30;99.90;;;;;;5003861;28;20080;-74
2020/12/26 08:39:04;;;;;;;11.18;6.78;;;0.40;99.90;;;;;;5009862;28;20033;-74
2020/12/26 08:41:32;;;;;;;12.73;7.55;;;0.50;99.90;;;;;;5007963;28;20109;-74
2020/12/26 08:43:58;;;;;;;14.70;7.72;;;0.50;99.90;;;;;;5005569;28;20029;-74
2020/12/26 08:46:27;;;;;;;11.48;7.45;;;0.50;99.90;;;;;;4995772;28;20362;-74
2020/12/26 08:48:55;;;;;;;12.30;7.38;;;0.50;99.90;;;;;;5004178;28;20053;-74
2020/12/26 08:51:25;;;;;;;12.45;7.55;;;0.50;99.90;;;;;;4996961;28;20065;-75
2020/12/26 08:53:53;;;;;;;13.43;7.22;;;0.60;99.90;;;;;;5008434;28;20032;-74
2020/12/26 08:56:35;;;;;;;13.43;6.93;;;0.70;99.90;;;;;;5007811;28;20072;-74
2020/12/26 08:59:01;;;;;;;9.25;6.03;;;0.60;99.90;;;;;;5001834;28;20097;-74
2020/12/26 09:01:27;;;;;;;12.48;6.65;;;0.70;99.90;;;;;;5003667;28;20124;-74
2020/12/26 09:03:52;;;;;;;10.23;6.07;;;0.80;99.90;;;;;;5008448;28;20022;-74
2020/12/26 09:06:42;;;;;;;10.20;5.88;;;0.70;99.90;;;;;;5000148;28;20038;-74
2020/12/26 09:09:14;;;;;;;10.10;5.95;;;0.70;99.90;;;;;;5005145;28;20026;-74
2020/12/26 09:11:39;;;;;;;8.95;4.93;;;0.80;99.90;;;;;;5002039;28;20034;-74
2020/12/26 09:14:16;;;;;;;11.55;6.13;;;0.80;99.90;;;;;;5013252;28;20088;-74
2020/12/26 09:16:42;;;;;;;9.18;6.05;;;0.90;99.90;;;;;;5002820;28;20038;-75
2020/12/26 09:19:07;;;;;;;12.32;7.18;;;1.00;99.90;;;;;;5007216;28;20022;-74
2020/12/26 09:21:34;;;;;;;11.57;6.65;;;1.00;99.90;;;;;;5001018;28;20077;-75
2020/12/26 09:23:59;;;;;;;12.40;7.40;;;1.00;99.90;;;;;;5009931;28;20034;-74
2020/12/26 09:26:33;;;;;;;12.05;7.28;;;1.00;99.90;;;;;;5002499;28;20049;-74
2020/12/26 09:29:01;;;;;;;16.70;7.47;;;1.10;99.90;;;;;;5012872;28;20026;-74
2020/12/26 09:31:39;;;;;;;15.73;7.95;;;1.10;99.90;;;;;;5008559;28;20530;-75
2020/12/26 09:34:15;;;;;;;12.00;6.90;;;1.10;99.90;;;;;;5017380;28;20031;-73
2020/12/26 09:36:41;;;;;;;13.35;7.65;;;1.10;99.90;;;;;;5010711;28;20080;-74
2020/12/26 09:39:07;;;;;;;13.95;7.88;;;1.10;99.90;;;;;;5011381;28;20786;-74
2020/12/26 09:41:49;;;;;;;16.92;8.68;;;1.20;99.90;;;;;;5010666;28;20065;-74
2020/12/26 09:44:15;;;;;;;16.45;9.73;;;1.20;99.90;;;;;;5010864;28;20030;-74
2020/12/26 09:46:42;;;;;;;16.60;9.57;;;1.20;99.90;;;;;;5010160;28;20068;-74
2020/12/26 09:49:09;;;;;;;16.10;9.50;;;1.20;99.90;;;;;;5007264;28;20046;-74
2020/12/26 09:51:35;;;;;;;15.68;8.50;;;1.20;99.90;;;;;;5003411;28;20050;-74
2020/12/26 09:54:01;;;;;;;17.85;8.32;;;1.30;99.90;;;;;;4998540;28;20528;-74
2020/12/26 09:56:26;;;;;;;15.45;8.82;;;1.20;99.90;;;;;;5005665;28;20520;-75
2020/12/26 09:58:52;;;;;;;13.55;7.90;;;1.30;99.90;;;;;;5006732;28;20098;-74
2020/12/26 10:01:20;;;;;;;12.18;8.00;;;1.30;99.90;;;;;;5005384;28;20018;-74
2020/12/26 10:03:48;;;;;;;11.85;7.00;;;1.20;99.90;;;;;;5003071;28;20113;-75
2020/12/26 10:06:15;;;;;;;12.65;6.22;;;1.30;99.90;;;;;;5007391;28;20064;-75
2020/12/26 10:08:43;;;;;;;11.82;5.53;;;1.30;99.90;;;;;;5008462;28;20038;-74
2020/12/26 10:11:09;;;;;;;10.05;4.97;;;1.30;99.90;;;;;;5002625;28;20041;-74
2020/12/26 10:13:35;;;;;;;9.32;4.35;;;1.40;99.90;;;;;;5010253;28;20069;-75
2020/12/26 10:16:01;;;;;;;9.52;4.38;;;1.40;99.90;;;;;;5002453;28;20058;-74
2020/12/26 10:18:27;;;;;;;9.93;4.63;;;1.40;99.90;;;;;;5006552;28;20034;-74
2020/12/26 10:20:52;;;;;;;9.02;3.67;;;1.50;99.90;;;;;;5002157;28;20026;-74
2020/12/26 10:23:18;;;;;;;8.15;3.90;;;1.50;99.90;;;;;;5007325;28;20038;-74
2020/12/26 10:25:44;;;;;;;7.20;3.85;;;1.50;99.90;;;;;;5007966;28;20037;-74
2020/12/26 10:28:09;;;;;;;8.35;4.30;;;1.60;99.90;;;;;;5003468;28;20046;-74
2020/12/26 10:30:35;;;;;;;7.38;4.18;;;1.70;99.90;;;;;;5004769;28;20739;-75
2020/12/26 10:33:00;;;;;;;10.00;4.40;;;1.80;99.90;;;;;;5010892;28;20427;-75
2020/12/26 10:35:26;;;;;;;8.43;4.07;;;1.90;99.90;;;;;;5003878;28;20057;-74
2020/12/26 10:37:52;;;;;;;11.98;4.85;;;1.90;99.90;;;;;;5014346;28;20042;-74
2020/12/26 10:40:17;;;;;;;16.27;7.88;;;2.00;99.90;;;;;;5010459;28;20041;-74
2020/12/26 10:42:43;;;;;;;12.90;7.60;;;2.10;99.90;;;;;;5009678;28;20044;-74
2020/12/26 10:45:09;;;;;;;10.65;5.90;;;2.20;99.90;;;;;;5010578;28;20108;-74
2020/12/26 10:47:34;;;;;;;8.60;4.40;;;2.30;99.90;;;;;;5006302;28;20053;-74
2020/12/26 10:50:00;;;;;;;9.82;3.95;;;2.40;99.90;;;;;;5010624;28;20048;-74
2020/12/26 10:52:25;;;;;;;12.73;4.40;;;2.40;99.90;;;;;;5005533;28;20030;-74
2020/12/26 10:54:51;;;;;;;21.75;5.30;;;2.50;99.90;;;;;;5006133;28;20604;-75
2020/12/26 10:57:17;;;;;;;36.63;8.05;;;2.60;99.90;;;;;;5006029;28;20038;-74
2020/12/26 10:59:42;;;;;;;11.23;5.00;;;2.70;99.90;;;;;;5006040;28;20040;-74
2020/12/26 11:02:08;;;;;;;11.35;3.83;;;2.70;99.90;;;;;;5009543;28;20045;-74
2020/12/26 11:04:34;;;;;;;7.57;3.28;;;2.80;99.90;;;;;;5008918;28;20057;-74
2020/12/26 11:06:59;;;;;;;6.38;2.88;;;2.90;99.90;;;;;;5012355;28;20029;-74
2020/12/26 11:09:25;;;;;;;11.52;3.13;;;2.90;99.90;;;;;;5009316;28;20030;-74
2020/12/26 11:11:52;;;;;;;7.13;3.10;;;2.90;99.90;;;;;;5009984;28;20088;-75
2020/12/26 11:14:19;;;;;;;9.85;3.42;;;3.00;99.90;;;;;;5008069;28;20037;-75
2020/12/26 11:16:52;;;;;;;14.98;6.68;;;3.00;99.90;;;;;;5002857;28;20069;-74
2020/12/26 11:19:18;;;;;;;11.45;6.43;;;3.00;99.90;;;;;;5003420;28;20028;-75
2020/12/26 11:21:44;;;;;;;8.13;4.65;;;3.00;99.90;;;;;;5008124;28;20056;-74
2020/12/26 11:24:11;;;;;;;15.73;8.68;;;3.10;99.90;;;;;;5009251;28;20524;-74
2020/12/26 11:26:37;;;;;;;14.60;8.32;;;3.20;99.90;;;;;;5005275;28;20718;-74
2020/12/26 11:29:04;;;;;;;8.60;4.50;;;3.30;99.90;;;;;;5002581;28;20385;-74
2020/12/26 11:31:29;;;;;;;8.63;3.80;;;3.40;99.90;;;;;;5007708;28;20033;-74
2020/12/26 11:33:55;;;;;;;9.20;2.35;;;3.50;99.90;;;;;;5008682;28;20040;-74
2020/12/26 11:36:24;;;;;;;5.88;1.85;;;3.40;99.90;;;;;;5001058;28;20133;-74
2020/12/26 11:38:51;;;;;;;5.72;2.20;;;3.40;99.90;;;;;;5008859;28;20018;-73
2020/12/26 11:41:27;;;;;;;4.78;2.28;;;3.60;99.90;;;;;;5008482;28;20032;-74
2020/12/26 11:43:53;;;;;;;4.53;2.15;;;3.40;99.90;;;;;;5001790;28;20096;-74
2020/12/26 11:46:19;;;;;;;5.60;2.28;;;3.30;99.90;;;;;;5009286;28;20611;-74
2020/12/26 11:48:45;;;;;;;4.40;1.70;;;3.40;99.90;;;;;;5005307;28;20058;-74
2020/12/26 11:51:11;;;;;;;3.83;1.83;;;3.50;99.90;;;;;;5008565;28;20088;-74
2020/12/26 11:53:37;;;;;;;5.32;2.22;;;3.70;99.90;;;;;;5004510;28;20045;-73
2020/12/26 11:56:11;;;;;;;7.57;2.63;;;3.80;99.90;;;;;;4991025;28;20114;-74
2020/12/26 11:58:37;;;;;;;6.50;1.95;;;3.90;99.90;;;;;;5008712;28;20034;-73
2020/12/26 12:01:04;;;;;;;4.22;1.58;;;4.00;99.90;;;;;;5000657;28;20053;-75
2020/12/26 12:03:29;;;;;;;4.95;1.35;;;4.10;99.90;;;;;;5002571;28;20953;-74
2020/12/26 12:05:55;;;;;;;5.63;2.10;;;4.10;99.90;;;;;;5006862;28;20030;-74
2020/12/26 12:08:21;;;;;;;4.38;1.65;;;4.10;99.90;;;;;;5005343;28;20060;-73
2020/12/26 12:10:47;;;;;;;3.50;1.40;;;4.10;99.90;;;;;;5008237;28;20028;-74
2020/12/26 12:13:12;;;;;;;4.28;1.73;;;4.10;99.90;;;;;;5007274;28;20044;-73
2020/12/26 12:15:39;;;;;;;4.43;1.48;;;4.20;99.90;;;;;;5000633;28;20488;-74
2020/12/26 12:18:05;;;;;;;3.58;1.27;;;4.20;99.90;;;;;;5004403;28;20524;-74
2020/12/26 12:20:31;;;;;;;3.40;1.50;;;4.30;99.90;;;;;;5003894;28;20105;-74
2020/12/26 12:23:00;;;;;;;3.35;1.40;;;4.40;99.90;;;;;;5003951;28;20027;-74
2020/12/26 12:25:27;;;;;;;4.53;1.70;;;4.40;99.90;;;;;;5006949;28;20069;-74
2020/12/26 12:27:53;;;;;;;3.38;1.27;;;4.40;99.90;;;;;;5002868;28;20460;-74
2020/12/26 12:30:19;;;;;;;3.85;1.35;;;4.50;99.90;;;;;;5009495;28;20036;-74
2020/12/26 12:32:45;;;;;;;2.88;1.20;;;4.60;99.90;;;;;;5008049;28;20042;-74
2020/12/26 12:35:11;;;;;;;2.88;1.25;;;4.30;99.90;;;;;;4998272;28;20037;-74
2020/12/26 12:37:37;;;;;;;2.97;1.20;;;4.30;99.90;;;;;;5007025;28;20084;-74
2020/12/26 12:40:05;;;;;;;5.10;1.52;;;4.40;99.90;;;;;;5005078;28;20038;-74
2020/12/26 12:42:31;;;;;;;3.78;1.23;;;4.40;99.90;;;;;;5008285;28;20220;-74
2020/12/26 12:44:57;;;;;;;5.18;1.70;;;4.30;99.90;;;;;;5007445;28;20030;-74
2020/12/26 12:47:24;;;;;;;3.65;1.38;;;4.40;99.90;;;;;;5001758;28;20034;-74
2020/12/26 12:49:50;;;;;;;3.38;1.30;;;4.40;99.90;;;;;;5002958;28;20085;-74
2020/12/26 12:52:16;;;;;;;5.88;1.67;;;4.40;99.90;;;;;;5006720;28;20029;-74
2020/12/26 12:54:42;;;;;;;3.15;1.20;;;4.10;99.90;;;;;;5002254;28;20034;-73